createdAt,value
2022-09-12T00:00:52.212Z,12.10
2022-09-12T00:03:18.458Z,6.30
2022-09-12T00:05:46.031Z,10.95
2022-09-12T00:08:12.956Z,10.52
2022-09-12T00:10:39.850Z,7.35
2022-09-12T00:13:06.932Z,6.13
2022-09-12T00:15:37.655Z,6.43
2022-09-12T00:18:03.977Z,6.65
2022-09-12T00:20:30.252Z,7.53
2022-09-12T00:22:56.456Z,8.40
2022-09-12T00:25:22.684Z,15.95
2022-09-12T00:27:48.891Z,9.55
2022-09-12T00:30:15.099Z,9.35
2022-09-12T00:32:41.299Z,9.85
2022-09-12T00:35:07.690Z,6.50
2022-09-12T00:37:34.364Z,6.47
2022-09-12T00:40:00.686Z,6.07
2022-09-12T00:42:26.967Z,5.75
2022-09-12T00:44:53.800Z,7.43
2022-09-12T00:47:30.462Z,8.07
2022-09-12T00:50:03.464Z,11.13
2022-09-12T00:52:33.827Z,10.18
2022-09-12T00:55:10.731Z,12.73
2022-09-12T00:57:39.462Z,14.10
2022-09-12T01:00:16.831Z,8.35
2022-09-12T01:02:44.022Z,7.47
2022-09-12T01:05:11.139Z,7.78
2022-09-12T01:07:40.041Z,7.97
2022-09-12T01:10:07.276Z,13.07
2022-09-12T01:12:34.404Z,9.85
2022-09-12T01:15:00.784Z,12.93
2022-09-12T01:17:31.832Z,8.57
2022-09-12T01:20:04.424Z,8.85
2022-09-12T01:22:30.614Z,13.32
2022-09-12T01:24:59.564Z,9.07
2022-09-12T01:27:33.943Z,9.57
2022-09-12T01:30:00.120Z,8.93
2022-09-12T01:32:35.103Z,12.05
2022-09-12T01:35:23.713Z,9.80
2022-09-12T01:37:59.151Z,13.73
2022-09-12T01:40:40.646Z,8.60
2022-09-12T01:43:25.022Z,10.02
2022-09-12T01:45:51.245Z,7.80
2022-09-12T01:48:20.306Z,15.40
2022-09-12T01:50:50.577Z,16.30
2022-09-12T01:53:20.183Z,10.10
2022-09-12T01:55:52.121Z,11.87
2022-09-12T01:58:22.512Z,12.18
2022-09-12T02:00:52.980Z,10.18
2022-09-12T02:03:22.756Z,13.32
2022-09-12T02:05:53.015Z,11.73
2022-09-12T02:08:23.067Z,13.38
2022-09-12T02:10:53.649Z,10.82
2022-09-12T02:13:25.508Z,16.15
2022-09-12T02:15:58.198Z,8.23
2022-09-12T02:18:27.179Z,9.82
2022-09-12T02:20:54.180Z,8.65
2022-09-12T02:23:22.423Z,14.30
2022-09-12T02:25:50.476Z,13.68
2022-09-12T02:28:27.845Z,7.82
2022-09-12T02:31:09.341Z,11.63
2022-09-12T02:33:55.854Z,14.70
2022-09-12T02:36:35.059Z,10.88
2022-09-12T02:39:01.342Z,8.70
2022-09-12T02:41:27.562Z,18.08
2022-09-12T02:43:54.003Z,10.93
2022-09-12T02:46:22.653Z,13.57
2022-09-12T02:48:48.858Z,8.55
2022-09-12T02:51:15.149Z,14.77
2022-09-12T02:53:41.695Z,11.77
2022-09-12T02:56:10.604Z,7.65
2022-09-12T02:58:36.972Z,8.73
2022-09-12T03:01:18.884Z,10.95
2022-09-12T03:03:59.999Z,12.07
2022-09-12T03:06:26.172Z,13.88
2022-09-12T03:09:00.208Z,9.63
2022-09-12T03:11:37.672Z,9.88
2022-09-12T03:14:21.538Z,11.93
2022-09-12T03:16:59.499Z,14.88
2022-09-12T03:19:44.448Z,10.30
2022-09-12T03:22:18.703Z,9.23
2022-09-12T03:25:04.446Z,18.17
2022-09-12T03:27:36.312Z,12.65
2022-09-12T03:30:04.486Z,11.80
2022-09-12T03:32:47.197Z,12.70
2022-09-12T03:35:14.139Z,7.63
2022-09-12T03:37:40.587Z,16.73
2022-09-12T03:40:07.645Z,6.30
2022-09-12T03:42:34.247Z,6.45
2022-09-12T03:45:00.459Z,6.45
2022-09-12T03:47:26.727Z,7.03
2022-09-12T03:49:53.000Z,7.00
2022-09-12T03:52:19.649Z,6.32
2022-09-12T03:54:45.863Z,6.10
2022-09-12T03:57:12.458Z,8.70
2022-09-12T03:59:38.660Z,14.65
2022-09-12T04:02:04.915Z,6.75
2022-09-12T04:04:31.440Z,7.40
2022-09-12T04:06:57.734Z,7.18
2022-09-12T04:09:24.006Z,8.48
2022-09-12T04:11:50.277Z,9.30
2022-09-12T04:14:16.758Z,14.45
2022-09-12T04:16:43.025Z,11.27
2022-09-12T04:19:11.409Z,13.27
2022-09-12T04:21:37.694Z,17.33
2022-09-12T04:24:04.008Z,11.65
2022-09-12T04:26:31.640Z,14.65
2022-09-12T04:28:58.435Z,16.75
2022-09-12T04:31:25.336Z,18.50
2022-09-12T04:33:55.721Z,11.45
2022-09-12T04:36:22.825Z,11.70
2022-09-12T04:38:49.499Z,14.55
2022-09-12T04:41:20.309Z,12.90
2022-09-12T04:43:47.321Z,13.93
2022-09-12T04:46:15.372Z,11.57
2022-09-12T04:48:41.646Z,14.10
2022-09-12T04:51:07.983Z,11.43
2022-09-12T04:53:34.371Z,16.38
2022-09-12T04:56:04.658Z,14.63
2022-09-12T04:58:32.254Z,14.80
2022-09-12T05:01:06.280Z,17.77
2022-09-12T05:03:33.248Z,12.98
2022-09-12T05:06:00.084Z,18.05
2022-09-12T05:08:26.360Z,14.90
2022-09-12T05:10:52.572Z,15.75
2022-09-12T05:13:18.766Z,15.70
2022-09-12T05:15:53.708Z,14.07
2022-09-12T05:18:19.934Z,22.42
2022-09-12T05:20:46.140Z,13.40
2022-09-12T05:23:12.383Z,17.60
2022-09-12T05:25:38.587Z,15.27
2022-09-12T05:28:04.787Z,19.08
2022-09-12T05:30:31.026Z,14.40
2022-09-12T05:32:57.242Z,17.17
2022-09-12T05:35:23.446Z,14.52
2022-09-12T05:37:49.647Z,19.83
2022-09-12T05:40:17.778Z,18.45
2022-09-12T05:42:44.024Z,16.88
2022-09-12T05:45:10.330Z,19.95
2022-09-12T05:47:36.620Z,17.50
2022-09-12T05:50:06.207Z,19.92
2022-09-12T05:52:32.636Z,21.33
2022-09-12T05:54:58.827Z,21.13
2022-09-12T05:57:25.210Z,22.42
2022-09-12T05:59:51.431Z,26.70
2022-09-12T06:02:18.150Z,32.42
2022-09-12T06:04:45.708Z,35.15
2022-09-12T06:07:12.233Z,41.42
2022-09-12T06:09:38.623Z,49.97
2022-09-12T06:12:04.922Z,44.08
2022-09-12T06:14:32.819Z,44.67
2022-09-12T06:16:59.183Z,42.63
2022-09-12T06:19:27.922Z,46.90
2022-09-12T06:21:54.140Z,39.60
2022-09-12T06:24:21.158Z,36.13
2022-09-12T06:26:47.711Z,47.80
2022-09-12T06:29:14.298Z,50.25
2022-09-12T06:31:41.767Z,45.42
2022-09-12T06:34:08.989Z,44.67
2022-09-12T06:36:39.319Z,40.88
2022-09-12T06:39:07.560Z,45.40
2022-09-12T06:41:33.999Z,39.53
2022-09-12T06:44:00.719Z,36.83
2022-09-12T06:46:27.341Z,44.42
2022-09-12T06:48:55.585Z,55.33
2022-09-12T06:51:21.856Z,44.80
2022-09-12T06:53:48.626Z,52.15
2022-09-12T06:56:21.661Z,60.05
2022-09-12T06:58:48.892Z,81.93
2022-09-12T07:01:19.095Z,69.70
2022-09-12T07:03:49.451Z,62.63
2022-09-12T07:06:16.474Z,69.28
2022-09-12T07:08:42.920Z,74.78
2022-09-12T07:11:14.134Z,68.22
2022-09-12T07:13:40.679Z,69.05
2022-09-12T07:16:06.927Z,71.20
2022-09-12T07:18:33.821Z,63.25
2022-09-12T07:21:01.175Z,69.93
2022-09-12T07:23:27.766Z,60.03
2022-09-12T07:25:54.563Z,71.25
2022-09-12T07:28:20.784Z,64.07
2022-09-12T07:30:46.999Z,66.85
2022-09-12T07:33:13.383Z,66.30
2022-09-12T07:35:39.929Z,61.38
2022-09-12T07:38:06.388Z,67.18
2022-09-12T07:40:32.643Z,67.93
2022-09-12T07:42:58.855Z,77.00
2022-09-12T07:45:26.734Z,66.57
2022-09-12T07:47:53.651Z,62.08
2022-09-12T07:50:19.890Z,59.97
2022-09-12T07:52:46.308Z,58.53
2022-09-12T07:55:12.527Z,53.35
2022-09-12T07:57:38.763Z,57.80
2022-09-12T08:00:05.680Z,54.78
2022-09-12T08:02:31.915Z,44.45
2022-09-12T08:04:58.142Z,50.22
2022-09-12T08:07:24.392Z,53.03
2022-09-12T08:09:50.675Z,56.33
2022-09-12T08:12:17.727Z,44.90
2022-09-12T08:14:43.919Z,52.05
2022-09-12T08:17:10.243Z,53.75
2022-09-12T08:19:36.487Z,47.22
2022-09-12T08:22:02.896Z,44.85
2022-09-12T08:24:29.137Z,45.88
2022-09-12T08:26:55.430Z,51.35
2022-09-12T08:29:21.673Z,44.08
2022-09-12T08:31:47.981Z,44.15
2022-09-12T08:34:16.940Z,43.28
2022-09-12T08:36:43.152Z,46.63
2022-09-12T08:39:12.010Z,42.97
2022-09-12T08:41:39.895Z,42.88
2022-09-12T08:44:15.239Z,44.25
2022-09-12T08:46:57.118Z,39.35
2022-09-12T08:49:27.501Z,40.15
2022-09-12T08:54:23.962Z,33.88
2022-09-12T08:56:50.996Z,32.45
2022-09-12T08:59:17.201Z,35.35
2022-09-12T09:01:45.313Z,31.40
2022-09-12T09:04:20.799Z,36.60
2022-09-12T09:07:06.086Z,30.65
2022-09-12T09:09:51.297Z,30.88
2022-09-12T09:12:29.388Z,28.63
2022-09-12T09:15:11.247Z,35.83
2022-09-12T09:17:42.575Z,30.10
2022-09-12T09:20:28.794Z,29.23
2022-09-12T09:23:01.078Z,29.13
2022-09-12T09:25:38.309Z,34.10
2022-09-12T09:28:07.598Z,29.77
2022-09-12T09:30:35.654Z,31.20
2022-09-12T09:33:03.450Z,28.08
2022-09-12T09:35:38.278Z,35.75
2022-09-12T09:38:13.490Z,28.63
2022-09-12T09:40:50.139Z,29.75
2022-09-12T09:43:16.323Z,32.78
2022-09-12T09:45:45.785Z,37.78
2022-09-12T09:48:22.390Z,31.15
2022-09-12T09:50:49.411Z,31.60
2022-09-12T09:53:37.282Z,25.73
2022-09-12T09:56:07.308Z,28.00
2022-09-12T09:58:34.180Z,29.05
2022-09-12T10:01:01.494Z,25.15
2022-09-12T10:03:28.643Z,26.60
2022-09-12T10:05:57.014Z,26.08
2022-09-12T10:08:27.517Z,23.08
2022-09-12T10:10:58.451Z,21.10
2022-09-12T10:13:35.442Z,25.80
2022-09-12T10:16:03.489Z,18.60
2022-09-12T10:18:33.366Z,19.42
2022-09-12T10:21:01.575Z,16.95
2022-09-12T10:23:37.746Z,18.88
2022-09-12T10:26:08.528Z,16.20
2022-09-12T10:28:34.782Z,27.88
2022-09-12T10:31:02.600Z,16.88
2022-09-12T10:33:29.404Z,17.25
2022-09-12T10:35:55.997Z,20.85
2022-09-12T10:38:31.212Z,16.65
2022-09-12T10:40:59.452Z,13.48
2022-09-12T10:43:27.103Z,14.60
2022-09-12T10:45:57.254Z,14.02
2022-09-12T10:48:32.634Z,11.65
2022-09-12T10:50:59.747Z,14.52
2022-09-12T10:53:29.950Z,20.38
2022-09-12T10:56:08.955Z,9.48
2022-09-12T10:58:53.806Z,13.10
2022-09-12T11:01:32.236Z,13.82
2022-09-12T11:03:58.483Z,8.57
2022-09-12T11:06:28.632Z,10.77
2022-09-12T11:09:03.959Z,9.30
2022-09-12T11:11:34.626Z,10.65
2022-09-12T11:14:10.422Z,8.60
2022-09-12T11:16:37.005Z,6.78
2022-09-12T11:19:21.814Z,6.43
2022-09-12T11:21:50.780Z,7.32
2022-09-12T11:24:28.833Z,6.35
2022-09-12T11:26:55.023Z,5.75
2022-09-12T11:29:23.964Z,15.93
2022-09-12T11:31:56.242Z,7.45
2022-09-12T11:34:35.683Z,7.00
2022-09-12T11:37:17.408Z,5.47
2022-09-12T11:39:46.453Z,7.28
2022-09-12T11:42:18.091Z,3.30
2022-09-12T11:44:47.423Z,4.53
2022-09-12T11:47:14.400Z,6.88
2022-09-12T11:49:49.006Z,5.68
2022-09-12T11:52:25.389Z,5.13
2022-09-12T11:54:57.851Z,6.50
2022-09-12T11:57:42.747Z,3.10
2022-09-12T12:00:27.666Z,4.72
2022-09-12T12:03:07.339Z,4.97
2022-09-12T12:05:53.411Z,4.38
2022-09-12T12:08:23.839Z,7.10
2022-09-12T12:10:53.184Z,8.82
2022-09-12T12:13:28.050Z,4.55
2022-09-12T12:15:56.461Z,5.90
2022-09-12T12:18:24.610Z,5.70
2022-09-12T12:20:51.290Z,5.47
2022-09-12T12:23:23.454Z,3.35
2022-09-12T12:25:53.938Z,3.25
2022-09-12T12:28:38.742Z,10.05
2022-09-12T12:31:05.664Z,5.32
2022-09-12T12:33:31.947Z,5.28
2022-09-12T12:36:00.884Z,9.68
2022-09-12T12:38:38.542Z,4.13
2022-09-12T12:41:16.879Z,2.90
2022-09-12T12:43:43.652Z,5.43
2022-09-12T12:46:13.576Z,3.67
2022-09-12T12:48:58.815Z,3.45
2022-09-12T12:51:30.856Z,4.45
2022-09-12T12:53:57.678Z,4.63
2022-09-12T12:56:40.494Z,4.10
2022-09-12T12:59:15.167Z,4.70
2022-09-12T13:01:55.142Z,4.15
2022-09-12T13:04:22.849Z,3.72
2022-09-12T13:07:15.400Z,4.68
2022-09-12T13:09:47.312Z,4.22
2022-09-12T13:12:21.499Z,2.78
2022-09-12T13:14:51.404Z,6.18
2022-09-12T13:17:20.793Z,5.40
2022-09-12T13:19:47.291Z,4.55
2022-09-12T13:22:14.350Z,4.18
2022-09-12T13:24:44.612Z,6.63
2022-09-12T13:27:17.003Z,2.50
2022-09-12T13:29:43.264Z,2.75
2022-09-12T13:32:09.531Z,4.57
2022-09-12T13:34:50.332Z,4.38
2022-09-12T13:37:22.471Z,3.55
2022-09-12T13:39:50.003Z,3.63
2022-09-12T13:42:38.117Z,7.80
2022-09-12T13:45:21.260Z,7.55
2022-09-12T13:47:50.000Z,5.43
2022-09-12T13:50:27.589Z,4.13
2022-09-12T13:52:55.782Z,3.45
2022-09-12T13:55:39.096Z,4.20
2022-09-12T13:58:25.593Z,7.43
2022-09-12T14:01:06.839Z,7.75
2022-09-12T14:04:02.154Z,5.65
2022-09-12T14:06:28.704Z,4.00
2022-09-12T14:08:56.830Z,3.92
2022-09-12T14:11:25.134Z,3.35
2022-09-12T14:13:52.559Z,3.80
2022-09-12T14:16:23.344Z,8.32
2022-09-12T14:18:51.598Z,6.45
2022-09-12T14:21:34.399Z,5.57
2022-09-12T14:24:01.655Z,3.83
2022-09-12T14:26:34.052Z,5.43
2022-09-12T14:29:01.162Z,3.22
2022-09-12T14:31:31.519Z,4.45
2022-09-12T14:34:13.056Z,3.95
2022-09-12T14:36:49.399Z,2.88
2022-09-12T14:39:18.378Z,7.30
2022-09-12T14:41:46.110Z,5.32
2022-09-12T14:44:24.524Z,4.40
2022-09-12T14:46:51.124Z,3.88
2022-09-12T14:49:27.508Z,2.83
2022-09-12T14:51:56.063Z,12.02
2022-09-12T14:54:28.252Z,5.38
2022-09-12T14:56:55.944Z,4.00
2022-09-12T14:59:34.038Z,2.65
2022-09-12T15:02:18.833Z,2.45
2022-09-12T15:04:48.269Z,5.95
2022-09-12T15:07:24.746Z,3.50
2022-09-12T15:09:51.005Z,6.75
2022-09-12T15:12:17.215Z,2.97
2022-09-12T15:14:43.424Z,2.63
2022-09-12T15:17:09.640Z,3.90
2022-09-12T15:19:35.851Z,5.70
2022-09-12T15:22:02.196Z,6.50
2022-09-12T15:24:28.406Z,3.78
2022-09-12T15:26:54.670Z,2.50
2022-09-12T15:29:20.900Z,7.50
2022-09-12T15:31:47.547Z,14.57
2022-09-12T15:34:13.757Z,5.25
2022-09-12T15:36:39.975Z,2.88
2022-09-12T15:39:06.276Z,10.18
2022-09-12T15:41:33.643Z,2.42
2022-09-12T15:43:59.957Z,3.50
2022-09-12T15:46:26.268Z,1.73
2022-09-12T15:48:52.536Z,2.60
2022-09-12T15:51:20.001Z,4.63
2022-09-12T15:53:47.372Z,2.95
2022-09-12T15:56:14.546Z,1.55
2022-09-12T15:58:57.261Z,2.03
2022-09-12T16:01:24.306Z,9.60
2022-09-12T16:03:50.625Z,7.35
2022-09-12T16:06:16.963Z,3.75
2022-09-12T16:08:43.338Z,7.03
2022-09-12T16:11:13.709Z,1.80
2022-09-12T16:13:39.950Z,1.70
2022-09-12T16:16:07.573Z,3.15
2022-09-12T16:18:33.846Z,5.97
2022-09-12T16:21:00.124Z,15.20
2022-09-12T16:23:26.359Z,4.53
2022-09-12T16:25:58.305Z,4.28
2022-09-12T16:28:24.720Z,1.77
2022-09-12T16:30:56.976Z,3.88
2022-09-12T16:33:23.486Z,5.40
2022-09-12T16:35:51.212Z,2.78
2022-09-12T16:38:17.805Z,2.28
2022-09-12T16:40:44.070Z,4.18
2022-09-12T16:43:10.278Z,5.03
2022-09-12T16:45:36.547Z,4.47
2022-09-12T16:48:02.745Z,2.70
2022-09-12T16:50:29.230Z,3.38
2022-09-12T16:52:55.472Z,1.55
2022-09-12T16:55:22.263Z,3.33
2022-09-12T16:57:49.333Z,3.30
2022-09-12T17:00:15.742Z,2.17
2022-09-12T17:02:41.969Z,3.80
2022-09-12T17:05:08.371Z,8.75
2022-09-12T17:07:34.773Z,3.72
2022-09-12T17:10:01.171Z,4.50
2022-09-12T17:12:27.411Z,4.43
2022-09-12T17:14:54.294Z,8.13
2022-09-12T17:17:20.521Z,9.15
2022-09-12T17:19:46.790Z,9.27
2022-09-12T17:22:13.003Z,2.97
2022-09-12T17:24:40.391Z,4.00
2022-09-12T17:27:06.687Z,6.55
2022-09-12T17:29:34.970Z,4.50
2022-09-12T17:32:01.505Z,16.40
2022-09-12T17:34:27.877Z,11.10
2022-09-12T17:36:54.151Z,1.85
2022-09-12T17:39:20.383Z,5.72
2022-09-12T17:41:47.048Z,15.32
2022-09-12T17:44:14.832Z,3.50
2022-09-12T17:46:41.544Z,8.88
2022-09-12T17:49:09.119Z,10.05
2022-09-12T17:51:35.463Z,3.33
2022-09-12T17:54:01.697Z,6.00
2022-09-12T17:56:29.492Z,3.20
2022-09-12T17:58:56.698Z,2.38
2022-09-12T18:01:42.074Z,7.70
2022-09-12T18:04:08.390Z,8.43
2022-09-12T18:06:34.680Z,3.90
2022-09-12T18:09:02.210Z,6.15
2022-09-12T18:11:28.830Z,8.80
2022-09-12T18:13:55.110Z,3.20
2022-09-12T18:16:21.451Z,2.00
2022-09-12T18:18:49.959Z,8.15
2022-09-12T18:21:16.381Z,7.13
2022-09-12T18:23:42.628Z,6.25
2022-09-12T18:26:10.134Z,10.55
2022-09-12T18:28:38.744Z,7.95
2022-09-12T18:31:09.379Z,8.48
2022-09-12T18:33:35.606Z,3.63
2022-09-12T18:36:09.322Z,3.88
2022-09-12T18:38:35.858Z,4.80
2022-09-12T18:41:06.856Z,4.95
2022-09-12T18:43:33.587Z,7.68
2022-09-12T18:46:06.487Z,7.57
2022-09-12T18:48:33.259Z,4.50
2022-09-12T18:51:05.031Z,6.95
2022-09-12T18:53:32.042Z,7.80
2022-09-12T18:56:06.160Z,4.82
2022-09-12T18:58:32.361Z,3.95
2022-09-12T19:00:58.847Z,6.88
2022-09-12T19:03:25.159Z,4.72
2022-09-12T19:05:51.456Z,8.30
2022-09-12T19:08:17.815Z,4.65
2022-09-12T19:10:44.334Z,4.60
2022-09-12T19:13:10.564Z,6.47
2022-09-12T19:15:39.294Z,5.32
2022-09-12T19:18:05.534Z,6.00
2022-09-12T19:20:35.026Z,6.03
2022-09-12T19:23:01.242Z,4.45
2022-09-12T19:25:27.452Z,5.45
2022-09-12T19:27:53.667Z,9.65
2022-09-12T19:30:19.911Z,10.85
2022-09-12T19:32:46.122Z,4.57
2022-09-12T19:35:14.160Z,11.55
2022-09-12T19:37:40.383Z,12.07
2022-09-12T19:40:07.730Z,8.27
2022-09-12T19:42:34.026Z,13.35
2022-09-12T19:45:00.235Z,14.32
2022-09-12T19:47:26.455Z,17.77
2022-09-12T19:49:52.684Z,9.05
2022-09-12T19:52:18.916Z,5.10
2022-09-12T19:54:45.427Z,11.80
2022-09-12T19:57:11.689Z,9.70
2022-09-12T19:59:37.904Z,8.50
2022-09-12T20:02:04.224Z,7.20
2022-09-12T20:04:31.412Z,13.27
2022-09-12T20:06:57.639Z,4.85
2022-09-12T20:09:23.905Z,12.48
2022-09-12T20:11:50.160Z,6.68
2022-09-12T20:14:16.374Z,5.07
2022-09-12T20:16:43.144Z,3.45
2022-09-12T20:19:09.375Z,14.75
2022-09-12T20:21:36.096Z,7.30
2022-09-12T20:24:12.492Z,5.10
2022-09-12T20:26:39.192Z,9.05
2022-09-12T20:29:05.973Z,5.78
2022-09-12T20:31:33.257Z,4.03
2022-09-12T20:33:59.590Z,4.15
2022-09-12T20:36:25.907Z,11.15
2022-09-12T20:38:53.714Z,8.73
2022-09-12T20:41:20.630Z,5.05
2022-09-12T20:43:51.135Z,8.40
2022-09-12T20:46:21.413Z,11.35
2022-09-12T20:48:48.283Z,9.38
2022-09-12T20:51:14.550Z,6.53
2022-09-12T20:53:40.759Z,8.40
2022-09-12T20:56:07.064Z,5.43
2022-09-12T20:58:33.605Z,11.95
2022-09-12T21:01:00.456Z,7.20
2022-09-12T21:03:26.698Z,4.95
2022-09-12T21:05:52.913Z,10.38
2022-09-12T21:08:19.126Z,7.25
2022-09-12T21:10:45.326Z,8.07
2022-09-12T21:13:12.350Z,6.05
2022-09-12T21:15:39.518Z,7.22
2022-09-12T21:18:05.799Z,10.57
2022-09-12T21:20:32.121Z,5.63
2022-09-12T21:22:58.642Z,11.13
2022-09-12T21:25:25.057Z,8.70
2022-09-12T21:27:51.292Z,5.45
2022-09-12T21:30:17.685Z,11.32
2022-09-12T21:32:43.886Z,6.57
2022-09-12T21:35:10.213Z,8.52
2022-09-12T21:37:36.425Z,8.27
2022-09-12T21:40:03.222Z,7.38
2022-09-12T21:42:29.540Z,4.10
2022-09-12T21:44:55.760Z,5.90
2022-09-12T21:47:22.044Z,4.68
2022-09-12T21:49:48.279Z,5.57
2022-09-12T21:52:14.475Z,4.15
2022-09-12T21:54:40.736Z,7.70
2022-09-12T21:57:07.109Z,6.57
2022-09-12T21:59:33.332Z,14.90
2022-09-12T22:01:59.744Z,5.00
2022-09-12T22:04:26.432Z,7.68
2022-09-12T22:06:52.727Z,7.35
2022-09-12T22:09:19.007Z,9.55
2022-09-12T22:11:45.220Z,5.93
2022-09-12T22:14:11.433Z,9.23
2022-09-12T22:16:37.643Z,6.53
2022-09-12T22:19:03.910Z,6.72
2022-09-12T22:21:30.154Z,6.05
2022-09-12T22:24:14.822Z,10.93
2022-09-12T22:26:42.066Z,10.68
2022-09-12T22:29:10.036Z,4.90
2022-09-12T22:31:37.028Z,4.68
2022-09-12T22:34:03.443Z,9.10
2022-09-12T22:36:31.585Z,9.48
2022-09-12T22:38:58.861Z,9.45
2022-09-12T22:41:25.123Z,6.63
2022-09-12T22:43:51.344Z,9.75
2022-09-12T22:46:17.638Z,8.55
2022-09-12T22:48:43.870Z,6.50
2022-09-12T22:51:10.390Z,6.07
2022-09-12T22:53:36.834Z,5.40
2022-09-12T22:56:04.956Z,11.60
2022-09-12T22:58:31.831Z,8.40
2022-09-12T23:00:58.111Z,6.35
2022-09-12T23:03:24.417Z,6.72
2022-09-12T23:05:50.698Z,9.40
2022-09-12T23:08:17.665Z,13.40
2022-09-12T23:10:44.007Z,10.85
2022-09-12T23:13:10.563Z,6.70
2022-09-12T23:15:36.772Z,6.75
2022-09-12T23:18:05.054Z,8.45
2022-09-12T23:20:31.499Z,8.27
2022-09-12T23:22:57.731Z,11.32
2022-09-12T23:25:24.830Z,15.00
2022-09-12T23:27:51.083Z,6.80
2022-09-12T23:30:21.156Z,13.85
2022-09-12T23:32:48.291Z,9.85
2022-09-12T23:35:14.693Z,5.53
2022-09-12T23:37:41.648Z,8.60
2022-09-12T23:40:09.066Z,5.47
2022-09-12T23:42:35.371Z,13.93
2022-09-12T23:45:01.712Z,8.80
2022-09-12T23:47:28.037Z,6.50
2022-09-12T23:49:54.247Z,6.38
2022-09-12T23:52:20.460Z,7.13
2022-09-12T23:54:46.674Z,10.57
2022-09-12T23:57:12.896Z,9.45
2022-09-12T23:59:39.105Z,12.10
